createdAt,value
2023-05-21T00:00:00.242Z,82.38
2023-05-21T00:02:27.191Z,82.13
2023-05-21T00:04:54.113Z,81.72
2023-05-21T00:07:20.981Z,81.33
2023-05-21T00:09:47.957Z,81.56
2023-05-21T00:12:14.881Z,81.30
2023-05-21T00:14:41.754Z,80.79
2023-05-21T00:17:08.673Z,81.05
2023-05-21T00:19:36.016Z,80.67
2023-05-21T00:22:02.838Z,80.73
2023-05-21T00:24:29.983Z,80.80
2023-05-21T00:26:56.865Z,80.70
2023-05-21T00:29:24.172Z,80.94
2023-05-21T00:31:51.204Z,80.75
2023-05-21T00:34:18.279Z,81.56
2023-05-21T00:36:46.401Z,81.44
2023-05-21T00:39:13.991Z,80.98
2023-05-21T00:41:40.889Z,80.74
2023-05-21T00:44:07.798Z,80.95
2023-05-21T00:46:35.288Z,80.72
2023-05-21T00:49:02.235Z,80.88
2023-05-21T00:51:29.350Z,80.52
2023-05-21T00:53:58.018Z,80.31
2023-05-21T00:56:25.441Z,80.14
2023-05-21T00:58:52.656Z,83.19
2023-05-21T01:01:21.106Z,82.76
2023-05-21T01:03:48.054Z,83.55
2023-05-21T01:06:14.925Z,84.37
2023-05-21T01:08:42.217Z,85.03
2023-05-21T01:11:11.039Z,87.20
2023-05-21T01:13:40.786Z,88.30
2023-05-21T01:16:09.378Z,88.70
2023-05-21T01:18:36.504Z,88.98
2023-05-21T01:21:04.634Z,88.63
2023-05-21T01:23:32.513Z,88.82
2023-05-21T01:25:59.515Z,88.26
2023-05-21T01:28:26.426Z,88.73
2023-05-21T01:30:53.621Z,90.88
2023-05-21T01:33:29.879Z,90.97
2023-05-21T01:36:05.064Z,89.80
2023-05-21T01:38:41.518Z,89.23
2023-05-21T01:41:11.738Z,88.60
2023-05-21T01:43:44.489Z,88.67
2023-05-21T01:46:18.142Z,90.29
2023-05-21T01:48:45.373Z,89.63
2023-05-21T01:51:13.046Z,88.92
2023-05-21T01:53:40.920Z,89.28
2023-05-21T01:56:08.314Z,91.03
2023-05-21T01:58:35.257Z,92.79
2023-05-21T02:01:02.262Z,93.54
2023-05-21T02:03:29.267Z,93.26
2023-05-21T02:05:56.138Z,91.56
2023-05-21T02:08:23.178Z,90.96
2023-05-21T02:10:50.677Z,90.88
2023-05-21T02:13:17.639Z,91.37
2023-05-21T02:15:44.570Z,92.02
2023-05-21T02:18:11.638Z,92.80
2023-05-21T02:20:38.581Z,94.47
2023-05-21T02:23:05.609Z,96.27
2023-05-21T02:25:32.442Z,97.05
2023-05-21T02:27:59.346Z,96.15
2023-05-21T02:30:26.255Z,95.76
2023-05-21T02:32:53.846Z,94.57
2023-05-21T02:35:21.005Z,93.91
2023-05-21T02:37:48.018Z,93.37
2023-05-21T02:40:14.921Z,91.99
2023-05-21T02:42:42.266Z,90.59
2023-05-21T02:45:10.504Z,89.26
2023-05-21T02:47:37.472Z,88.46
2023-05-21T02:50:07.189Z,87.98
2023-05-21T02:52:34.055Z,87.11
2023-05-21T02:55:01.145Z,87.03
2023-05-21T02:57:28.028Z,86.07
2023-05-21T02:59:55.028Z,85.18
2023-05-21T03:02:21.970Z,83.92
2023-05-21T03:04:48.934Z,85.71
2023-05-21T03:07:16.648Z,86.09
2023-05-21T03:09:43.491Z,87.63
2023-05-21T03:12:10.820Z,89.81
2023-05-21T03:14:38.029Z,90.65
2023-05-21T03:17:05.175Z,91.40
2023-05-21T03:19:32.908Z,91.41
2023-05-21T03:21:59.862Z,91.03
2023-05-21T03:24:26.701Z,89.95
2023-05-21T03:26:53.540Z,89.58
2023-05-21T03:29:20.424Z,89.17
2023-05-21T03:31:47.355Z,88.31
2023-05-21T03:34:14.273Z,88.04
2023-05-21T03:36:41.114Z,87.67
2023-05-21T03:39:07.960Z,87.05
2023-05-21T03:41:34.881Z,86.53
2023-05-21T03:44:01.771Z,86.33
2023-05-21T03:46:28.657Z,87.13
2023-05-21T03:48:55.551Z,88.39
2023-05-21T03:51:22.451Z,87.98
2023-05-21T03:53:49.262Z,87.70
2023-05-21T03:56:16.184Z,87.32
2023-05-21T03:58:43.117Z,86.61
2023-05-21T04:01:10.215Z,85.76
2023-05-21T04:03:39.941Z,85.05
2023-05-21T04:06:07.671Z,85.89
2023-05-21T04:08:34.546Z,86.85
2023-05-21T04:11:01.388Z,88.06
2023-05-21T04:13:28.278Z,89.74
2023-05-21T04:15:55.217Z,89.72
2023-05-21T04:18:22.123Z,89.28
2023-05-21T04:20:49.092Z,88.61
2023-05-21T04:23:15.944Z,88.16
2023-05-21T04:25:42.816Z,87.60
2023-05-21T04:28:09.712Z,86.79
2023-05-21T04:30:36.571Z,87.19
2023-05-21T04:33:03.952Z,86.89
2023-05-21T04:35:30.864Z,86.22
2023-05-21T04:37:57.757Z,85.93
2023-05-21T04:40:24.610Z,85.55
2023-05-21T04:42:51.676Z,85.03
2023-05-21T04:45:18.863Z,84.42
2023-05-21T04:47:45.816Z,84.79
2023-05-21T04:50:12.897Z,85.66
2023-05-21T04:52:40.276Z,86.57
2023-05-21T04:55:10.445Z,89.75
2023-05-21T04:57:37.598Z,90.67
2023-05-21T05:00:04.878Z,90.89
2023-05-21T05:02:31.864Z,90.67
2023-05-21T05:04:58.890Z,91.04
2023-05-21T05:07:25.720Z,91.75
2023-05-21T05:09:55.598Z,91.25
2023-05-21T05:12:25.596Z,90.26
2023-05-21T05:14:52.462Z,90.32
2023-05-21T05:17:19.404Z,89.42
2023-05-21T05:19:46.333Z,89.67
2023-05-21T05:22:13.672Z,89.82
2023-05-21T05:24:40.670Z,89.56
2023-05-21T05:27:09.241Z,88.42
2023-05-21T05:29:36.044Z,87.53
2023-05-21T05:32:02.967Z,86.58
2023-05-21T05:34:29.877Z,85.54
2023-05-21T05:36:58.830Z,83.25
2023-05-21T05:39:25.731Z,79.63
2023-05-21T05:41:52.644Z,79.81
2023-05-21T05:44:19.676Z,76.57
2023-05-21T05:46:46.611Z,77.40
2023-05-21T05:49:13.703Z,75.42
2023-05-21T05:51:40.869Z,75.76
2023-05-21T05:54:07.870Z,74.87
2023-05-21T05:56:34.848Z,72.24
2023-05-21T05:59:01.750Z,73.50
2023-05-21T06:01:28.680Z,70.03
2023-05-21T06:03:55.720Z,68.79
2023-05-21T06:06:22.707Z,66.78
2023-05-21T06:08:49.660Z,67.41
2023-05-21T06:11:16.580Z,68.78
2023-05-21T06:13:43.534Z,67.27
2023-05-21T06:16:10.558Z,68.59
2023-05-21T06:18:38.129Z,68.89
2023-05-21T06:21:05.025Z,69.73
2023-05-21T06:23:34.765Z,69.19
2023-05-21T06:26:01.703Z,68.10
2023-05-21T06:28:31.468Z,66.50
2023-05-21T06:31:01.100Z,65.06
2023-05-21T06:33:28.129Z,64.03
2023-05-21T06:35:55.345Z,63.93
2023-05-21T06:38:22.211Z,61.91
2023-05-21T06:40:52.272Z,61.74
2023-05-21T06:43:19.139Z,59.96
2023-05-21T06:45:46.332Z,59.35
2023-05-21T06:48:13.261Z,59.82
2023-05-21T06:50:40.121Z,59.37
2023-05-21T06:53:06.970Z,58.20
2023-05-21T06:55:34.144Z,55.98
2023-05-21T06:58:01.157Z,55.97
2023-05-21T07:00:28.216Z,57.02
2023-05-21T07:02:58.001Z,59.94
2023-05-21T07:05:24.965Z,59.92
2023-05-21T07:07:51.838Z,58.54
2023-05-21T07:10:21.517Z,58.58
2023-05-21T07:12:48.391Z,57.09
2023-05-21T07:15:17.830Z,58.08
2023-05-21T07:17:45.119Z,59.61
2023-05-21T07:20:12.935Z,59.42
2023-05-21T07:22:39.912Z,59.79
2023-05-21T07:25:07.389Z,61.21
2023-05-21T07:27:34.376Z,59.81
2023-05-21T07:30:01.275Z,58.49
2023-05-21T07:32:31.059Z,56.86
2023-05-21T07:35:00.651Z,58.55
2023-05-21T07:37:27.691Z,55.63
2023-05-21T07:40:01.133Z,56.86
2023-05-21T07:42:28.107Z,56.23
2023-05-21T07:44:54.986Z,57.27
2023-05-21T07:47:22.025Z,58.10
2023-05-21T07:49:49.332Z,62.70
2023-05-21T07:52:16.627Z,66.74
2023-05-21T07:54:43.657Z,69.20
2023-05-21T07:57:11.355Z,71.67
2023-05-21T07:59:38.300Z,71.92
2023-05-21T08:02:05.660Z,68.35
2023-05-21T08:04:32.738Z,68.63
2023-05-21T08:07:01.782Z,71.00
2023-05-21T08:09:28.827Z,71.92
2023-05-21T08:11:55.859Z,71.73
2023-05-21T08:14:22.946Z,71.84
2023-05-21T08:16:49.983Z,72.42
2023-05-21T08:19:17.076Z,71.48
2023-05-21T08:21:44.020Z,72.13
2023-05-21T08:24:11.042Z,72.57
2023-05-21T08:26:37.914Z,70.55
2023-05-21T08:29:05.622Z,71.45
2023-05-21T08:31:32.681Z,71.88
2023-05-21T08:33:59.616Z,70.78
2023-05-21T08:36:26.550Z,70.54
2023-05-21T08:38:53.680Z,69.62
2023-05-21T08:41:21.646Z,66.48
2023-05-21T08:43:54.946Z,70.35
2023-05-21T08:46:24.077Z,70.37
2023-05-21T08:48:52.208Z,72.60
2023-05-21T08:51:19.275Z,73.93
2023-05-21T08:53:49.960Z,73.46
2023-05-21T08:56:17.868Z,71.23
2023-05-21T08:58:49.846Z,70.48
2023-05-21T09:01:16.914Z,66.34
2023-05-21T09:03:44.340Z,61.18
2023-05-21T09:06:12.735Z,65.28
2023-05-21T09:08:52.701Z,60.45
2023-05-21T09:11:20.017Z,62.60
2023-05-21T09:13:52.705Z,59.85
2023-05-21T09:16:19.817Z,60.84
2023-05-21T09:18:46.771Z,59.48
2023-05-21T09:21:30.789Z,59.44
2023-05-21T09:23:59.154Z,61.79
2023-05-21T09:26:26.734Z,63.61
2023-05-21T09:28:58.146Z,56.41
2023-05-21T09:31:25.203Z,57.14
2023-05-21T09:33:52.063Z,54.62
2023-05-21T09:36:20.507Z,56.39
2023-05-21T09:38:53.505Z,55.88
2023-05-21T09:41:22.112Z,54.99
2023-05-21T09:43:49.692Z,53.73
2023-05-21T09:46:20.982Z,51.67
2023-05-21T09:48:47.928Z,56.25
2023-05-21T09:51:19.296Z,61.16
2023-05-21T09:53:55.116Z,60.73
2023-05-21T09:56:26.946Z,64.54
2023-05-21T09:58:58.290Z,65.03
2023-05-21T10:01:25.348Z,65.10
2023-05-21T10:03:57.798Z,65.12
2023-05-21T10:06:29.615Z,64.48
2023-05-21T10:08:57.288Z,65.22
2023-05-21T10:11:31.974Z,65.17
2023-05-21T10:14:04.941Z,64.70
2023-05-21T10:16:34.641Z,65.95
2023-05-21T10:19:02.237Z,65.48
2023-05-21T10:21:30.553Z,62.32
2023-05-21T10:24:02.943Z,60.19
2023-05-21T10:26:30.601Z,59.64
2023-05-21T10:28:58.081Z,59.57
2023-05-21T10:31:26.121Z,60.86
2023-05-21T10:33:54.245Z,58.33
2023-05-21T10:36:21.360Z,58.71
2023-05-21T10:38:48.631Z,57.82
2023-05-21T10:41:17.393Z,57.87
2023-05-21T10:44:02.585Z,56.57
2023-05-21T10:47:00.639Z,55.80
2023-05-21T10:49:50.725Z,54.10
2023-05-21T10:52:58.879Z,53.97
2023-05-21T10:55:40.762Z,55.44
2023-05-21T10:58:19.885Z,57.17
2023-05-21T11:00:47.368Z,56.11
2023-05-21T11:03:15.382Z,60.07
2023-05-21T11:05:52.908Z,59.37
2023-05-21T11:08:28.376Z,58.58
2023-05-21T11:10:58.963Z,58.81
2023-05-21T11:13:44.589Z,60.42
2023-05-21T11:16:15.656Z,57.19
2023-05-21T11:18:51.287Z,54.70
2023-05-21T11:21:21.381Z,52.58
2023-05-21T11:23:51.491Z,53.86
2023-05-21T11:26:29.983Z,54.60
2023-05-21T11:29:05.890Z,56.49
2023-05-21T11:31:34.109Z,55.42
2023-05-21T11:34:21.318Z,56.83
2023-05-21T11:36:49.706Z,55.78
2023-05-21T11:39:18.369Z,53.77
2023-05-21T11:41:59.495Z,52.14
2023-05-21T11:44:48.604Z,53.91
2023-05-21T11:47:19.877Z,48.73
2023-05-21T11:49:47.246Z,47.95
2023-05-21T11:52:14.710Z,51.08
2023-05-21T11:54:44.549Z,49.38
2023-05-21T11:57:12.264Z,49.65
2023-05-21T11:59:39.147Z,50.17
2023-05-21T12:02:09.421Z,50.50
2023-05-21T12:04:40.022Z,49.33
2023-05-21T12:07:07.702Z,49.07
2023-05-21T12:09:41.203Z,49.34
2023-05-21T12:12:19.543Z,49.39
2023-05-21T12:14:52.233Z,46.34
2023-05-21T12:17:23.920Z,47.63
2023-05-21T12:19:57.726Z,45.98
2023-05-21T12:22:31.208Z,45.00
2023-05-21T12:25:03.951Z,44.93
2023-05-21T12:27:31.982Z,46.77
2023-05-21T12:30:00.494Z,46.38
2023-05-21T12:32:30.173Z,45.75
2023-05-21T12:34:57.145Z,46.65
2023-05-21T12:37:28.074Z,46.06
2023-05-21T12:39:58.171Z,47.24
2023-05-21T12:42:29.729Z,47.41
2023-05-21T12:44:57.759Z,48.42
2023-05-21T12:47:26.077Z,48.20
2023-05-21T12:50:00.034Z,49.77
2023-05-21T12:52:27.467Z,45.73
2023-05-21T12:54:56.302Z,46.01
2023-05-21T12:57:26.233Z,45.24
2023-05-21T12:59:56.407Z,45.32
2023-05-21T13:02:28.034Z,45.47
2023-05-21T13:05:04.871Z,45.65
2023-05-21T13:07:33.716Z,44.06
2023-05-21T13:10:01.586Z,45.92
2023-05-21T13:12:31.246Z,46.05
2023-05-21T13:15:00.229Z,46.42
2023-05-21T13:17:28.690Z,45.01
2023-05-21T13:20:13.718Z,45.84
2023-05-21T13:22:45.374Z,44.11
2023-05-21T13:25:13.794Z,45.56
2023-05-21T13:27:40.665Z,45.96
2023-05-21T13:30:08.992Z,44.43
2023-05-21T13:32:37.091Z,43.06
2023-05-21T13:35:04.653Z,43.41
2023-05-21T13:37:31.661Z,45.34
2023-05-21T13:39:59.133Z,43.19
2023-05-21T13:42:25.998Z,45.20
2023-05-21T13:44:59.057Z,49.67
2023-05-21T13:47:27.836Z,51.10
2023-05-21T13:49:54.857Z,51.57
2023-05-21T13:52:24.232Z,50.59
2023-05-21T13:54:51.202Z,51.13
2023-05-21T13:57:23.632Z,51.26
2023-05-21T13:59:50.495Z,50.81
2023-05-21T14:02:19.119Z,50.95
2023-05-21T14:04:45.951Z,48.36
2023-05-21T14:07:12.886Z,49.21
2023-05-21T14:09:39.821Z,48.44
2023-05-21T14:12:09.498Z,49.38
2023-05-21T14:14:36.352Z,52.46
2023-05-21T14:17:03.280Z,52.28
2023-05-21T14:19:30.475Z,51.23
2023-05-21T14:21:57.371Z,49.83
2023-05-21T14:24:24.281Z,49.02
2023-05-21T14:26:51.217Z,47.12
2023-05-21T14:31:44.834Z,45.30
2023-05-21T14:34:11.793Z,45.71
2023-05-21T14:36:38.688Z,44.27
2023-05-21T14:39:05.748Z,50.39
2023-05-21T14:41:32.746Z,52.04
2023-05-21T14:43:59.613Z,53.34
2023-05-21T14:46:26.670Z,54.84
2023-05-21T14:48:53.666Z,55.00
2023-05-21T14:51:20.620Z,56.43
2023-05-21T14:53:47.791Z,58.21
2023-05-21T14:56:14.718Z,57.79
2023-05-21T14:58:41.644Z,58.72
2023-05-21T15:01:08.880Z,58.72
2023-05-21T15:03:35.849Z,58.75
2023-05-21T15:06:02.702Z,58.25
2023-05-21T15:08:29.718Z,57.14
2023-05-21T15:10:57.270Z,58.02
2023-05-21T15:13:24.299Z,58.21
2023-05-21T15:18:18.663Z,56.53
2023-05-21T15:20:45.554Z,56.98
2023-05-21T15:23:17.241Z,55.64
2023-05-21T15:25:45.040Z,56.61
2023-05-21T15:28:12.517Z,56.46
2023-05-21T15:30:39.901Z,56.95
2023-05-21T15:33:06.777Z,57.66
2023-05-21T15:35:35.438Z,55.75
2023-05-21T15:38:02.786Z,58.63
2023-05-21T15:40:29.709Z,61.00
2023-05-21T15:42:56.565Z,64.65
2023-05-21T15:45:24.834Z,67.04
2023-05-21T15:47:51.860Z,65.44
2023-05-21T15:50:18.764Z,65.40
2023-05-21T15:52:45.847Z,66.05
2023-05-21T15:55:12.703Z,64.94
2023-05-21T15:57:39.685Z,65.06
2023-05-21T16:00:07.350Z,65.22
2023-05-21T16:02:34.246Z,64.90
2023-05-21T16:05:01.229Z,65.28
2023-05-21T16:07:28.274Z,64.24
2023-05-21T16:09:55.261Z,64.82
2023-05-21T16:12:22.165Z,65.13
2023-05-21T16:14:49.435Z,64.95
2023-05-21T16:17:16.828Z,64.53
2023-05-21T16:19:43.877Z,64.74
2023-05-21T16:22:11.153Z,64.41
2023-05-21T16:24:38.127Z,64.82
2023-05-21T16:27:05.312Z,66.27
2023-05-21T16:29:34.541Z,66.41
2023-05-21T16:32:01.686Z,64.90
2023-05-21T16:34:31.481Z,64.10
2023-05-21T16:36:58.677Z,62.00
2023-05-21T16:39:25.658Z,62.16
2023-05-21T16:41:52.513Z,62.48
2023-05-21T16:44:19.468Z,63.99
2023-05-21T16:46:46.435Z,64.54
2023-05-21T16:49:13.432Z,65.24
2023-05-21T16:51:40.528Z,65.10
2023-05-21T16:54:07.756Z,65.78
2023-05-21T16:56:34.653Z,66.07
2023-05-21T16:59:01.707Z,65.32
2023-05-21T17:01:28.623Z,62.48
2023-05-21T17:03:55.574Z,62.00
2023-05-21T17:06:23.605Z,62.29
2023-05-21T17:08:50.468Z,63.21
2023-05-21T17:11:17.959Z,63.67
2023-05-21T17:13:45.364Z,64.17
2023-05-21T17:16:12.482Z,64.17
2023-05-21T17:18:39.734Z,63.88
2023-05-21T17:21:09.591Z,63.99
2023-05-21T17:23:36.697Z,64.31
2023-05-21T17:26:03.737Z,64.12
2023-05-21T17:28:30.644Z,64.59
2023-05-21T17:30:57.592Z,64.69
2023-05-21T17:33:24.464Z,64.17
2023-05-21T17:35:51.439Z,64.75
2023-05-21T17:38:18.357Z,65.04
2023-05-21T17:40:45.195Z,64.47
2023-05-21T17:43:12.214Z,64.96
2023-05-21T17:45:39.613Z,65.31
2023-05-21T17:48:09.867Z,65.11
2023-05-21T17:50:36.740Z,65.64
2023-05-21T17:53:03.659Z,65.19
2023-05-21T17:55:30.770Z,65.45
2023-05-21T17:57:57.710Z,65.27
2023-05-21T18:00:24.586Z,65.57
2023-05-21T18:02:51.480Z,65.29
2023-05-21T18:05:18.606Z,65.71
2023-05-21T18:07:45.592Z,66.09
2023-05-21T18:10:12.420Z,65.95
2023-05-21T18:12:39.832Z,66.45
2023-05-21T18:15:07.520Z,69.38
2023-05-21T18:17:34.473Z,69.54
2023-05-21T18:20:01.519Z,70.95
2023-05-21T18:22:28.447Z,69.33
2023-05-21T18:24:55.375Z,69.34
2023-05-21T18:27:22.462Z,68.96
2023-05-21T18:29:49.396Z,68.02
2023-05-21T18:32:16.501Z,68.93
2023-05-21T18:34:43.557Z,68.73
2023-05-21T18:37:11.073Z,68.82
2023-05-21T18:39:38.087Z,69.43
2023-05-21T18:44:39.174Z,69.65
2023-05-21T18:47:06.262Z,69.09
2023-05-21T18:49:33.377Z,69.25
2023-05-21T18:52:00.512Z,70.27
2023-05-21T18:54:27.556Z,71.88
2023-05-21T18:56:54.526Z,71.72
2023-05-21T18:59:21.435Z,71.32
2023-05-21T19:01:51.206Z,69.84
2023-05-21T19:04:18.153Z,69.30
2023-05-21T19:06:45.039Z,69.64
2023-05-21T19:09:12.059Z,69.33
2023-05-21T19:11:39.444Z,69.13
2023-05-21T19:14:06.301Z,70.77
2023-05-21T19:16:33.337Z,69.34
2023-05-21T19:19:00.297Z,68.91
2023-05-21T19:21:27.451Z,69.50
2023-05-21T19:23:59.654Z,69.66
2023-05-21T19:26:26.549Z,68.57
2023-05-21T19:28:53.791Z,68.51
2023-05-21T19:31:24.034Z,67.74
2023-05-21T19:33:51.449Z,68.09
2023-05-21T19:36:18.407Z,68.58
2023-05-21T19:38:49.261Z,69.01
2023-05-21T19:41:17.340Z,68.31
2023-05-21T19:43:45.357Z,68.17
2023-05-21T19:46:20.040Z,68.34
2023-05-21T19:48:47.668Z,68.06
2023-05-21T19:51:14.622Z,67.77
2023-05-21T19:53:41.554Z,67.60
2023-05-21T19:56:08.728Z,68.20
2023-05-21T19:58:35.752Z,67.47
2023-05-21T20:01:03.052Z,67.90
2023-05-21T20:03:29.988Z,66.74
2023-05-21T20:05:56.867Z,67.50
2023-05-21T20:08:23.703Z,66.90
2023-05-21T20:10:51.947Z,66.93
2023-05-21T20:13:19.264Z,67.84
2023-05-21T20:15:46.241Z,69.04
2023-05-21T20:18:13.484Z,69.87
2023-05-21T20:20:40.960Z,70.01
2023-05-21T20:23:08.598Z,70.32
2023-05-21T20:25:35.561Z,69.92
2023-05-21T20:28:02.628Z,69.64
2023-05-21T20:30:33.176Z,69.71
2023-05-21T20:33:03.796Z,70.32
2023-05-21T20:35:30.889Z,71.26
2023-05-21T20:38:00.492Z,71.14
2023-05-21T20:40:30.158Z,71.91
2023-05-21T20:42:57.068Z,71.98
2023-05-21T20:45:23.940Z,72.37
2023-05-21T20:47:50.878Z,71.84
2023-05-21T20:50:18.037Z,71.99
2023-05-21T20:52:47.023Z,72.56
2023-05-21T20:55:14.605Z,71.84
2023-05-21T20:57:41.834Z,71.97
2023-05-21T21:00:10.702Z,72.06
2023-05-21T21:02:38.153Z,72.45
2023-05-21T21:05:07.734Z,74.96
2023-05-21T21:07:42.105Z,73.83
2023-05-21T21:10:09.514Z,73.82
2023-05-21T21:12:36.342Z,73.48
2023-05-21T21:15:06.623Z,73.00
2023-05-21T21:17:33.650Z,72.93
2023-05-21T21:20:00.524Z,72.72
2023-05-21T21:22:28.916Z,72.33
2023-05-21T21:24:55.761Z,72.03
2023-05-21T21:27:22.636Z,71.31
2023-05-21T21:29:49.570Z,72.47
2023-05-21T21:32:16.521Z,75.00
2023-05-21T21:34:43.566Z,74.92
2023-05-21T21:37:11.122Z,74.69
2023-05-21T21:39:38.488Z,76.07
2023-05-21T21:42:05.721Z,75.47
2023-05-21T21:44:32.657Z,75.74
2023-05-21T21:46:59.507Z,75.70
2023-05-21T21:49:26.332Z,75.63
2023-05-21T21:51:53.320Z,74.85
2023-05-21T21:54:20.149Z,74.37
2023-05-21T21:56:47.068Z,73.94
2023-05-21T21:59:13.928Z,73.69
2023-05-21T22:01:40.808Z,73.50
2023-05-21T22:04:07.712Z,73.30
2023-05-21T22:06:34.700Z,73.46
2023-05-21T22:09:01.729Z,72.37
2023-05-21T22:11:28.697Z,71.65
2023-05-21T22:13:55.619Z,71.88
2023-05-21T22:16:22.618Z,72.14
2023-05-21T22:18:49.564Z,72.25
2023-05-21T22:21:16.531Z,72.12
2023-05-21T22:23:43.486Z,71.51
2023-05-21T22:26:10.374Z,73.92
2023-05-21T22:28:37.425Z,74.11
2023-05-21T22:31:04.684Z,74.36
2023-05-21T22:33:40.737Z,75.87
2023-05-21T22:36:07.944Z,77.14
2023-05-21T22:38:34.724Z,79.55
2023-05-21T22:41:01.883Z,80.25
2023-05-21T22:43:28.801Z,81.06
2023-05-21T22:45:55.738Z,79.99
2023-05-21T22:48:22.946Z,80.31
2023-05-21T22:50:50.264Z,79.50
2023-05-21T22:53:17.556Z,81.01
2023-05-21T22:55:44.677Z,80.72
2023-05-21T22:58:11.588Z,80.24
2023-05-21T23:00:38.678Z,79.70
2023-05-21T23:23:42.652Z,78.27
2023-05-21T23:26:09.555Z,77.27
2023-05-21T23:28:36.442Z,76.37
2023-05-21T23:31:03.790Z,76.43
2023-05-21T23:33:30.705Z,78.01
2023-05-21T23:35:57.624Z,79.55
2023-05-21T23:38:25.274Z,78.76
2023-05-21T23:40:52.274Z,78.42
2023-05-21T23:43:19.336Z,78.69
2023-05-21T23:45:46.362Z,77.88
2023-05-21T23:48:13.298Z,77.11
2023-05-21T23:50:40.494Z,76.25
2023-05-21T23:53:07.807Z,75.61
2023-05-21T23:55:34.725Z,74.42
2023-05-21T23:58:01.620Z,73.87
